sensor_id;sensor_type;location;lat;lon;timestamp;temperature;humidity
10386;DHT22;34307;51.332;12.334;2023-05-10T00:00:08;10.90;68.90
10386;DHT22;34307;51.332;12.334;2023-05-10T00:02:36;11.00;69.10
10386;DHT22;34307;51.332;12.334;2023-05-10T00:05:07;10.90;69.00
10386;DHT22;34307;51.332;12.334;2023-05-10T00:07:35;10.90;69.30
10386;DHT22;34307;51.332;12.334;2023-05-10T00:10:07;10.90;70.70
10386;DHT22;34307;51.332;12.334;2023-05-10T00:12:36;10.90;70.70
10386;DHT22;34307;51.332;12.334;2023-05-10T00:15:04;10.90;70.40
10386;DHT22;34307;51.332;12.334;2023-05-10T00:17:32;10.80;71.00
10386;DHT22;34307;51.332;12.334;2023-05-10T00:20:00;10.70;72.20
10386;DHT22;34307;51.332;12.334;2023-05-10T00:22:32;10.70;73.20
10386;DHT22;34307;51.332;12.334;2023-05-10T00:25:00;10.70;73.70
10386;DHT22;34307;51.332;12.334;2023-05-10T00:27:29;10.70;73.60
10386;DHT22;34307;51.332;12.334;2023-05-10T00:29:57;10.60;74.90
10386;DHT22;34307;51.332;12.334;2023-05-10T00:32:25;10.60;75.80
10386;DHT22;34307;51.332;12.334;2023-05-10T00:34:53;10.60;75.30
10386;DHT22;34307;51.332;12.334;2023-05-10T00:37:21;10.60;75.40
10386;DHT22;34307;51.332;12.334;2023-05-10T00:39:50;10.50;76.80
10386;DHT22;34307;51.332;12.334;2023-05-10T00:42:19;10.50;77.70
10386;DHT22;34307;51.332;12.334;2023-05-10T00:44:48;10.50;79.00
10386;DHT22;34307;51.332;12.334;2023-05-10T00:47:16;10.40;79.40
10386;DHT22;34307;51.332;12.334;2023-05-10T00:49:45;10.40;80.00
10386;DHT22;34307;51.332;12.334;2023-05-10T00:52:15;10.30;80.10
10386;DHT22;34307;51.332;12.334;2023-05-10T00:55:13;10.30;81.30
10386;DHT22;34307;51.332;12.334;2023-05-10T00:58:18;10.30;81.60
10386;DHT22;34307;51.332;12.334;2023-05-10T01:00:48;10.30;82.60
10386;DHT22;34307;51.332;12.334;2023-05-10T01:03:19;10.30;82.50
10386;DHT22;34307;51.332;12.334;2023-05-10T01:05:51;10.30;82.50
10386;DHT22;34307;51.332;12.334;2023-05-10T01:08:19;10.30;83.00
10386;DHT22;34307;51.332;12.334;2023-05-10T01:10:48;10.30;84.50
10386;DHT22;34307;51.332;12.334;2023-05-10T01:13:26;10.30;84.40
10386;DHT22;34307;51.332;12.334;2023-05-10T01:15:57;10.20;84.40
10386;DHT22;34307;51.332;12.334;2023-05-10T01:18:28;10.30;84.00
10386;DHT22;34307;51.332;12.334;2023-05-10T01:21:04;10.20;83.90
10386;DHT22;34307;51.332;12.334;2023-05-10T01:23:52;10.20;84.20
10386;DHT22;34307;51.332;12.334;2023-05-10T01:26:44;10.20;86.10
10386;DHT22;34307;51.332;12.334;2023-05-10T01:29:40;10.20;85.40
10386;DHT22;34307;51.332;12.334;2023-05-10T01:32:23;10.20;87.30
10386;DHT22;34307;51.332;12.334;2023-05-10T01:35:06;10.10;86.90
10386;DHT22;34307;51.332;12.334;2023-05-10T01:37:40;10.10;86.80
10386;DHT22;34307;51.332;12.334;2023-05-10T01:40:14;10.10;87.40
10386;DHT22;34307;51.332;12.334;2023-05-10T01:42:50;10.10;87.30
10386;DHT22;34307;51.332;12.334;2023-05-10T01:45:24;10.00;87.90
10386;DHT22;34307;51.332;12.334;2023-05-10T01:48:04;10.00;89.50
10386;DHT22;34307;51.332;12.334;2023-05-10T01:50:35;10.00;90.10
10386;DHT22;34307;51.332;12.334;2023-05-10T01:53:08;10.00;90.50
10386;DHT22;34307;51.332;12.334;2023-05-10T01:55:43;9.90;91.10
10386;DHT22;34307;51.332;12.334;2023-05-10T01:58:14;9.90;91.20
10386;DHT22;34307;51.332;12.334;2023-05-10T02:00:45;9.90;91.50
10386;DHT22;34307;51.332;12.334;2023-05-10T02:03:16;9.90;92.00
10386;DHT22;34307;51.332;12.334;2023-05-10T02:05:48;9.90;92.00
10386;DHT22;34307;51.332;12.334;2023-05-10T02:08:21;9.90;91.80
10386;DHT22;34307;51.332;12.334;2023-05-10T02:10:52;9.90;92.20
10386;DHT22;34307;51.332;12.334;2023-05-10T02:13:29;9.90;92.60
10386;DHT22;34307;51.332;12.334;2023-05-10T02:16:01;9.90;92.90
10386;DHT22;34307;51.332;12.334;2023-05-10T02:18:33;9.90;92.80
10386;DHT22;34307;51.332;12.334;2023-05-10T02:21:03;9.90;93.20
10386;DHT22;34307;51.332;12.334;2023-05-10T02:23:32;9.90;92.60
10386;DHT22;34307;51.332;12.334;2023-05-10T02:26:04;9.90;92.60
10386;DHT22;34307;51.332;12.334;2023-05-10T02:28:35;9.90;92.20
10386;DHT22;34307;51.332;12.334;2023-05-10T02:31:05;9.90;92.30
10386;DHT22;34307;51.332;12.334;2023-05-10T02:33:38;9.90;92.90
10386;DHT22;34307;51.332;12.334;2023-05-10T02:36:11;9.90;92.60
10386;DHT22;34307;51.332;12.334;2023-05-10T02:38:40;9.90;92.90
10386;DHT22;34307;51.332;12.334;2023-05-10T02:41:12;9.80;92.80
10386;DHT22;34307;51.332;12.334;2023-05-10T02:43:42;9.80;93.60
10386;DHT22;34307;51.332;12.334;2023-05-10T02:46:12;9.80;93.80
10386;DHT22;34307;51.332;12.334;2023-05-10T02:48:42;9.70;94.40
10386;DHT22;34307;51.332;12.334;2023-05-10T02:51:12;9.70;94.90
10386;DHT22;34307;51.332;12.334;2023-05-10T02:53:46;9.70;95.40
10386;DHT22;34307;51.332;12.334;2023-05-10T02:56:23;9.70;95.80
10386;DHT22;34307;51.332;12.334;2023-05-10T02:58:52;9.70;95.60
10386;DHT22;34307;51.332;12.334;2023-05-10T03:01:21;9.60;96.00
10386;DHT22;34307;51.332;12.334;2023-05-10T03:03:53;9.60;97.30
10386;DHT22;34307;51.332;12.334;2023-05-10T03:06:23;9.70;97.20
10386;DHT22;34307;51.332;12.334;2023-05-10T03:08:51;9.60;97.10
10386;DHT22;34307;51.332;12.334;2023-05-10T03:11:37;9.50;97.90
10386;DHT22;34307;51.332;12.334;2023-05-10T03:14:13;9.60;98.60
10386;DHT22;34307;51.332;12.334;2023-05-10T03:16:46;9.50;98.90
10386;DHT22;34307;51.332;12.334;2023-05-10T03:19:21;9.50;99.90
10386;DHT22;34307;51.332;12.334;2023-05-10T03:21:52;9.50;99.90
10386;DHT22;34307;51.332;12.334;2023-05-10T03:24:23;9.50;99.90
10386;DHT22;34307;51.332;12.334;2023-05-10T03:26:56;9.50;99.90
10386;DHT22;34307;51.332;12.334;2023-05-10T03:29:29;9.40;99.90
10386;DHT22;34307;51.332;12.334;2023-05-10T03:31:58;9.50;99.90
10386;DHT22;34307;51.332;12.334;2023-05-10T03:34:30;9.50;99.90
10386;DHT22;34307;51.332;12.334;2023-05-10T03:36:59;9.60;99.90
10386;DHT22;34307;51.332;12.334;2023-05-10T03:39:28;9.50;99.90
10386;DHT22;34307;51.332;12.334;2023-05-10T03:41:55;9.60;99.90
10386;DHT22;34307;51.332;12.334;2023-05-10T03:44:24;9.60;99.90
10386;DHT22;34307;51.332;12.334;2023-05-10T03:46:55;9.70;99.90
10386;DHT22;34307;51.332;12.334;2023-05-10T03:49:24;9.70;99.90
10386;DHT22;34307;51.332;12.334;2023-05-10T03:51:53;9.80;99.90
10386;DHT22;34307;51.332;12.334;2023-05-10T03:54:21;9.80;99.90
10386;DHT22;34307;51.332;12.334;2023-05-10T03:56:49;9.90;99.50
10386;DHT22;34307;51.332;12.334;2023-05-10T03:59:19;10.00;98.40
10386;DHT22;34307;51.332;12.334;2023-05-10T04:01:47;10.00;99.00
10386;DHT22;34307;51.332;12.334;2023-05-10T04:04:17;10.10;98.40
10386;DHT22;34307;51.332;12.334;2023-05-10T04:06:48;10.10;97.70
10386;DHT22;34307;51.332;12.334;2023-05-10T04:09:18;10.20;96.80
10386;DHT22;34307;51.332;12.334;2023-05-10T04:11:46;10.30;96.10
10386;DHT22;34307;51.332;12.334;2023-05-10T04:14:14;10.40;95.40
10386;DHT22;34307;51.332;12.334;2023-05-10T04:16:43;10.40;95.70
10386;DHT22;34307;51.332;12.334;2023-05-10T04:19:14;10.40;95.90
10386;DHT22;34307;51.332;12.334;2023-05-10T04:21:43;10.50;95.00
10386;DHT22;34307;51.332;12.334;2023-05-10T04:24:12;10.60;94.50
10386;DHT22;34307;51.332;12.334;2023-05-10T04:26:41;10.60;94.20
10386;DHT22;34307;51.332;12.334;2023-05-10T04:29:09;10.70;93.50
10386;DHT22;34307;51.332;12.334;2023-05-10T04:31:39;10.80;93.00
10386;DHT22;34307;51.332;12.334;2023-05-10T04:34:08;10.80;93.00
10386;DHT22;34307;51.332;12.334;2023-05-10T04:36:37;10.90;92.40
10386;DHT22;34307;51.332;12.334;2023-05-10T04:39:05;11.00;91.70
10386;DHT22;34307;51.332;12.334;2023-05-10T04:41:34;11.10;90.60
10386;DHT22;34307;51.332;12.334;2023-05-10T04:44:07;11.20;90.30
10386;DHT22;34307;51.332;12.334;2023-05-10T04:46:35;11.30;88.80
10386;DHT22;34307;51.332;12.334;2023-05-10T04:49:10;11.40;86.00
10386;DHT22;34307;51.332;12.334;2023-05-10T04:51:42;11.60;86.90
10386;DHT22;34307;51.332;12.334;2023-05-10T04:54:11;11.70;81.90
10386;DHT22;34307;51.332;12.334;2023-05-10T04:56:39;11.90;79.20
10386;DHT22;34307;51.332;12.334;2023-05-10T04:59:09;12.00;75.60
10386;DHT22;34307;51.332;12.334;2023-05-10T05:01:37;12.20;73.70
10386;DHT22;34307;51.332;12.334;2023-05-10T05:04:06;12.40;71.00
10386;DHT22;34307;51.332;12.334;2023-05-10T05:06:34;12.50;68.50
10386;DHT22;34307;51.332;12.334;2023-05-10T05:09:02;12.60;67.30
10386;DHT22;34307;51.332;12.334;2023-05-10T05:11:31;12.70;64.80
10386;DHT22;34307;51.332;12.334;2023-05-10T05:13:59;12.80;63.60
10386;DHT22;34307;51.332;12.334;2023-05-10T05:16:30;13.00;63.00
10386;DHT22;34307;51.332;12.334;2023-05-10T05:18:59;13.10;62.00
10386;DHT22;34307;51.332;12.334;2023-05-10T05:21:27;13.20;60.30
10386;DHT22;34307;51.332;12.334;2023-05-10T05:23:56;13.30;59.60
10386;DHT22;34307;51.332;12.334;2023-05-10T05:26:24;13.40;58.70
10386;DHT22;34307;51.332;12.334;2023-05-10T05:28:54;13.50;57.90
10386;DHT22;34307;51.332;12.334;2023-05-10T05:31:22;13.60;58.10
10386;DHT22;34307;51.332;12.334;2023-05-10T05:33:52;13.60;57.70
10386;DHT22;34307;51.332;12.334;2023-05-10T05:36:21;13.70;57.40
10386;DHT22;34307;51.332;12.334;2023-05-10T05:38:49;13.90;56.60
10386;DHT22;34307;51.332;12.334;2023-05-10T05:41:17;13.80;55.80
10386;DHT22;34307;51.332;12.334;2023-05-10T05:43:57;13.80;56.20
10386;DHT22;34307;51.332;12.334;2023-05-10T05:46:26;13.90;56.10
10386;DHT22;34307;51.332;12.334;2023-05-10T05:48:57;14.00;56.00
10386;DHT22;34307;51.332;12.334;2023-05-10T05:51:25;14.10;56.80
10386;DHT22;34307;51.332;12.334;2023-05-10T05:53:53;14.20;56.50
10386;DHT22;34307;51.332;12.334;2023-05-10T05:56:23;14.30;55.90
10386;DHT22;34307;51.332;12.334;2023-05-10T05:58:51;14.30;56.20
10386;DHT22;34307;51.332;12.334;2023-05-10T06:01:19;14.30;56.00
10386;DHT22;34307;51.332;12.334;2023-05-10T06:03:48;14.30;56.40
10386;DHT22;34307;51.332;12.334;2023-05-10T06:06:20;14.40;55.20
10386;DHT22;34307;51.332;12.334;2023-05-10T06:08:48;14.50;55.60
10386;DHT22;34307;51.332;12.334;2023-05-10T06:11:15;14.50;56.10
10386;DHT22;34307;51.332;12.334;2023-05-10T06:13:44;14.60;55.50
10386;DHT22;34307;51.332;12.334;2023-05-10T06:16:13;14.70;55.50
10386;DHT22;34307;51.332;12.334;2023-05-10T06:18:41;14.80;54.90
10386;DHT22;34307;51.332;12.334;2023-05-10T06:21:10;14.90;54.40
10386;DHT22;34307;51.332;12.334;2023-05-10T06:23:40;15.00;54.20
10386;DHT22;34307;51.332;12.334;2023-05-10T06:26:08;15.20;53.80
10386;DHT22;34307;51.332;12.334;2023-05-10T06:28:36;15.30;52.30
10386;DHT22;34307;51.332;12.334;2023-05-10T06:31:04;15.30;51.90
10386;DHT22;34307;51.332;12.334;2023-05-10T06:33:38;15.50;51.70
10386;DHT22;34307;51.332;12.334;2023-05-10T06:36:07;15.70;51.20
10386;DHT22;34307;51.332;12.334;2023-05-10T06:38:35;15.80;50.10
10386;DHT22;34307;51.332;12.334;2023-05-10T06:41:05;16.10;50.10
10386;DHT22;34307;51.332;12.334;2023-05-10T06:43:33;16.10;49.00
10386;DHT22;34307;51.332;12.334;2023-05-10T06:46:01;16.10;48.50
10386;DHT22;34307;51.332;12.334;2023-05-10T06:48:31;16.20;47.10
10386;DHT22;34307;51.332;12.334;2023-05-10T06:50:59;16.20;46.70
10386;DHT22;34307;51.332;12.334;2023-05-10T06:53:27;16.10;45.40
10386;DHT22;34307;51.332;12.334;2023-05-10T06:55:55;16.20;46.00
10386;DHT22;34307;51.332;12.334;2023-05-10T06:58:24;16.30;45.60
10386;DHT22;34307;51.332;12.334;2023-05-10T07:00:52;16.30;46.40
10386;DHT22;34307;51.332;12.334;2023-05-10T07:03:20;16.10;45.40
10386;DHT22;34307;51.332;12.334;2023-05-10T07:05:48;16.10;45.70
10386;DHT22;34307;51.332;12.334;2023-05-10T07:08:15;15.90;46.50
10386;DHT22;34307;51.332;12.334;2023-05-10T07:10:44;16.10;46.70
10386;DHT22;34307;51.332;12.334;2023-05-10T07:13:12;16.20;46.30
10386;DHT22;34307;51.332;12.334;2023-05-10T07:15:41;16.40;46.40
10386;DHT22;34307;51.332;12.334;2023-05-10T07:18:09;16.40;45.20
10386;DHT22;34307;51.332;12.334;2023-05-10T07:20:38;16.40;45.60
10386;DHT22;34307;51.332;12.334;2023-05-10T07:23:08;16.40;45.00
10386;DHT22;34307;51.332;12.334;2023-05-10T07:25:37;16.50;45.20
10386;DHT22;34307;51.332;12.334;2023-05-10T07:28:07;16.90;44.30
10386;DHT22;34307;51.332;12.334;2023-05-10T07:30:34;17.30;43.00
10386;DHT22;34307;51.332;12.334;2023-05-10T07:33:04;17.70;41.90
10386;DHT22;34307;51.332;12.334;2023-05-10T07:35:34;17.20;42.00
10386;DHT22;34307;51.332;12.334;2023-05-10T07:38:02;17.20;42.20
10386;DHT22;34307;51.332;12.334;2023-05-10T07:40:31;17.40;42.70
10386;DHT22;34307;51.332;12.334;2023-05-10T07:43:00;17.40;42.10
10386;DHT22;34307;51.332;12.334;2023-05-10T07:45:29;17.60;41.60
10386;DHT22;34307;51.332;12.334;2023-05-10T07:47:57;17.60;42.10
10386;DHT22;34307;51.332;12.334;2023-05-10T07:50:27;17.50;41.20
10386;DHT22;34307;51.332;12.334;2023-05-10T07:52:55;17.50;41.90
10386;DHT22;34307;51.332;12.334;2023-05-10T07:55:23;17.70;41.90
10386;DHT22;34307;51.332;12.334;2023-05-10T07:57:52;17.70;42.10
10386;DHT22;34307;51.332;12.334;2023-05-10T08:00:20;17.50;42.70
10386;DHT22;34307;51.332;12.334;2023-05-10T08:02:48;17.30;42.90
10386;DHT22;34307;51.332;12.334;2023-05-10T08:05:19;17.20;44.30
10386;DHT22;34307;51.332;12.334;2023-05-10T08:07:51;17.10;44.10
10386;DHT22;34307;51.332;12.334;2023-05-10T08:10:23;17.00;46.10
10386;DHT22;34307;51.332;12.334;2023-05-10T08:12:58;16.90;46.70
10386;DHT22;34307;51.332;12.334;2023-05-10T08:15:27;17.00;47.00
10386;DHT22;34307;51.332;12.334;2023-05-10T08:17:58;16.90;46.10
10386;DHT22;34307;51.332;12.334;2023-05-10T08:20:28;16.70;47.30
10386;DHT22;34307;51.332;12.334;2023-05-10T08:22:57;16.40;49.40
10386;DHT22;34307;51.332;12.334;2023-05-10T08:25:26;16.40;51.10
10386;DHT22;34307;51.332;12.334;2023-05-10T08:27:54;16.50;51.90
10386;DHT22;34307;51.332;12.334;2023-05-10T08:30:22;16.40;52.50
10386;DHT22;34307;51.332;12.334;2023-05-10T08:32:50;16.60;52.50
10386;DHT22;34307;51.332;12.334;2023-05-10T08:35:18;16.40;53.40
10386;DHT22;34307;51.332;12.334;2023-05-10T08:37:47;16.30;54.90
10386;DHT22;34307;51.332;12.334;2023-05-10T08:40:19;16.40;54.70
10386;DHT22;34307;51.332;12.334;2023-05-10T08:42:51;16.10;56.00
10386;DHT22;34307;51.332;12.334;2023-05-10T08:45:24;15.70;58.00
10386;DHT22;34307;51.332;12.334;2023-05-10T08:47:53;15.90;59.70
10386;DHT22;34307;51.332;12.334;2023-05-10T08:50:21;15.90;60.70
10386;DHT22;34307;51.332;12.334;2023-05-10T08:52:53;15.80;65.10
10386;DHT22;34307;51.332;12.334;2023-05-10T08:55:24;15.70;67.00
10386;DHT22;34307;51.332;12.334;2023-05-10T08:57:53;15.60;68.30
10386;DHT22;34307;51.332;12.334;2023-05-10T09:00:22;15.40;72.60
10386;DHT22;34307;51.332;12.334;2023-05-10T09:02:50;15.30;80.00
10386;DHT22;34307;51.332;12.334;2023-05-10T09:05:19;15.20;89.10
10386;DHT22;34307;51.332;12.334;2023-05-10T09:07:47;15.00;94.40
10386;DHT22;34307;51.332;12.334;2023-05-10T09:10:15;14.50;99.90
10386;DHT22;34307;51.332;12.334;2023-05-10T09:12:45;14.30;99.90
10386;DHT22;34307;51.332;12.334;2023-05-10T09:15:15;14.20;99.90
10386;DHT22;34307;51.332;12.334;2023-05-10T09:17:46;14.10;99.90
10386;DHT22;34307;51.332;12.334;2023-05-10T09:20:16;13.90;99.90
10386;DHT22;34307;51.332;12.334;2023-05-10T09:22:46;13.80;99.90
10386;DHT22;34307;51.332;12.334;2023-05-10T09:25:16;13.80;99.90
10386;DHT22;34307;51.332;12.334;2023-05-10T09:27:52;13.70;99.90
10386;DHT22;34307;51.332;12.334;2023-05-10T09:30:26;13.70;99.90
10386;DHT22;34307;51.332;12.334;2023-05-10T09:32:55;13.60;99.90
10386;DHT22;34307;51.332;12.334;2023-05-10T09:35:26;13.50;99.90
10386;DHT22;34307;51.332;12.334;2023-05-10T09:37:57;13.60;99.90
10386;DHT22;34307;51.332;12.334;2023-05-10T09:40:28;13.70;99.90
10386;DHT22;34307;51.332;12.334;2023-05-10T09:42:59;13.70;99.90
10386;DHT22;34307;51.332;12.334;2023-05-10T09:45:31;13.70;99.90
10386;DHT22;34307;51.332;12.334;2023-05-10T09:48:04;13.70;99.90
10386;DHT22;34307;51.332;12.334;2023-05-10T09:50:33;13.90;99.90
10386;DHT22;34307;51.332;12.334;2023-05-10T09:53:03;14.00;99.90
10386;DHT22;34307;51.332;12.334;2023-05-10T09:55:39;14.00;99.90
10386;DHT22;34307;51.332;12.334;2023-05-10T09:58:08;14.00;99.90
10386;DHT22;34307;51.332;12.334;2023-05-10T10:00:38;14.00;99.90
10386;DHT22;34307;51.332;12.334;2023-05-10T10:03:12;14.20;99.90
10386;DHT22;34307;51.332;12.334;2023-05-10T10:05:42;14.20;99.90
10386;DHT22;34307;51.332;12.334;2023-05-10T10:08:11;14.30;99.90
10386;DHT22;34307;51.332;12.334;2023-05-10T10:10:41;14.20;99.90
10386;DHT22;34307;51.332;12.334;2023-05-10T10:13:15;14.30;99.90
10386;DHT22;34307;51.332;12.334;2023-05-10T10:15:44;14.30;99.90
10386;DHT22;34307;51.332;12.334;2023-05-10T10:18:13;14.40;99.90
10386;DHT22;34307;51.332;12.334;2023-05-10T10:20:44;14.50;99.90
10386;DHT22;34307;51.332;12.334;2023-05-10T10:23:13;14.30;99.90
10386;DHT22;34307;51.332;12.334;2023-05-10T10:25:44;14.20;99.90
10386;DHT22;34307;51.332;12.334;2023-05-10T10:28:26;14.30;99.90
10386;DHT22;34307;51.332;12.334;2023-05-10T10:31:11;14.50;99.90
10386;DHT22;34307;51.332;12.334;2023-05-10T10:33:55;14.60;99.90
10386;DHT22;34307;51.332;12.334;2023-05-10T10:36:26;14.40;99.90
10386;DHT22;34307;51.332;12.334;2023-05-10T10:38:55;14.20;99.90
10386;DHT22;34307;51.332;12.334;2023-05-10T10:41:32;14.30;99.90
10386;DHT22;34307;51.332;12.334;2023-05-10T10:44:23;14.30;99.90
10386;DHT22;34307;51.332;12.334;2023-05-10T10:46:59;14.10;99.90
10386;DHT22;34307;51.332;12.334;2023-05-10T10:49:30;14.00;99.90
10386;DHT22;34307;51.332;12.334;2023-05-10T10:52:20;14.00;99.90
10386;DHT22;34307;51.332;12.334;2023-05-10T10:54:53;13.90;99.90
10386;DHT22;34307;51.332;12.334;2023-05-10T10:57:22;13.90;99.90
10386;DHT22;34307;51.332;12.334;2023-05-10T10:59:51;13.90;99.90
10386;DHT22;34307;51.332;12.334;2023-05-10T11:02:43;14.00;99.90
10386;DHT22;34307;51.332;12.334;2023-05-10T11:05:37;14.00;99.90
10386;DHT22;34307;51.332;12.334;2023-05-10T11:08:26;14.10;99.90
10386;DHT22;34307;51.332;12.334;2023-05-10T11:11:04;14.20;99.90
10386;DHT22;34307;51.332;12.334;2023-05-10T11:13:39;14.10;99.90
10386;DHT22;34307;51.332;12.334;2023-05-10T11:16:12;14.10;99.90
10386;DHT22;34307;51.332;12.334;2023-05-10T11:18:47;14.20;99.90
10386;DHT22;34307;51.332;12.334;2023-05-10T11:21:25;14.10;99.90
10386;DHT22;34307;51.332;12.334;2023-05-10T11:23:55;14.30;99.90
10386;DHT22;34307;51.332;12.334;2023-05-10T11:26:24;14.40;99.90
10386;DHT22;34307;51.332;12.334;2023-05-10T11:28:54;14.60;99.90
10386;DHT22;34307;51.332;12.334;2023-05-10T11:31:28;14.90;99.90
10386;DHT22;34307;51.332;12.334;2023-05-10T11:33:58;15.00;99.90
10386;DHT22;34307;51.332;12.334;2023-05-10T11:36:33;15.20;99.90
10386;DHT22;34307;51.332;12.334;2023-05-10T11:39:01;15.20;99.90
10386;DHT22;34307;51.332;12.334;2023-05-10T11:41:31;15.30;99.90
10386;DHT22;34307;51.332;12.334;2023-05-10T11:43:59;15.50;99.90
10386;DHT22;34307;51.332;12.334;2023-05-10T11:46:28;15.70;99.90
10386;DHT22;34307;51.332;12.334;2023-05-10T11:48:58;15.80;99.90
10386;DHT22;34307;51.332;12.334;2023-05-10T11:51:33;15.90;99.90
10386;DHT22;34307;51.332;12.334;2023-05-10T11:54:06;15.90;99.90
10386;DHT22;34307;51.332;12.334;2023-05-10T11:56:36;16.00;99.90
10386;DHT22;34307;51.332;12.334;2023-05-10T11:59:04;16.10;99.90
10386;DHT22;34307;51.332;12.334;2023-05-10T12:01:34;16.30;99.90
10386;DHT22;34307;51.332;12.334;2023-05-10T12:04:03;16.30;99.90
10386;DHT22;34307;51.332;12.334;2023-05-10T12:06:36;16.40;99.90
10386;DHT22;34307;51.332;12.334;2023-05-10T12:09:08;16.30;99.90
10386;DHT22;34307;51.332;12.334;2023-05-10T12:11:39;16.20;99.90
10386;DHT22;34307;51.332;12.334;2023-05-10T12:14:12;16.40;99.90
10386;DHT22;34307;51.332;12.334;2023-05-10T12:16:44;16.50;99.90
10386;DHT22;34307;51.332;12.334;2023-05-10T12:19:13;16.30;99.90
10386;DHT22;34307;51.332;12.334;2023-05-10T12:21:47;16.30;99.90
10386;DHT22;34307;51.332;12.334;2023-05-10T12:24:24;16.30;99.90
10386;DHT22;34307;51.332;12.334;2023-05-10T12:27:04;16.20;99.90
10386;DHT22;34307;51.332;12.334;2023-05-10T12:29:35;16.20;99.90
10386;DHT22;34307;51.332;12.334;2023-05-10T12:32:04;16.20;99.90
10386;DHT22;34307;51.332;12.334;2023-05-10T12:34:34;16.20;99.90
10386;DHT22;34307;51.332;12.334;2023-05-10T12:37:03;16.20;99.90
10386;DHT22;34307;51.332;12.334;2023-05-10T12:39:39;16.10;99.90
10386;DHT22;34307;51.332;12.334;2023-05-10T12:42:13;16.10;99.90
10386;DHT22;34307;51.332;12.334;2023-05-10T12:44:41;16.20;99.90
10386;DHT22;34307;51.332;12.334;2023-05-10T12:47:15;16.30;99.90
10386;DHT22;34307;51.332;12.334;2023-05-10T12:49:44;16.40;99.90
10386;DHT22;34307;51.332;12.334;2023-05-10T12:52:12;16.50;99.90
10386;DHT22;34307;51.332;12.334;2023-05-10T12:54:40;16.70;99.90
10386;DHT22;34307;51.332;12.334;2023-05-10T12:57:09;16.80;99.90
10386;DHT22;34307;51.332;12.334;2023-05-10T12:59:37;16.90;99.90
10386;DHT22;34307;51.332;12.334;2023-05-10T13:02:08;17.00;99.90
10386;DHT22;34307;51.332;12.334;2023-05-10T13:04:41;17.10;99.90
10386;DHT22;34307;51.332;12.334;2023-05-10T13:07:09;17.10;99.90
10386;DHT22;34307;51.332;12.334;2023-05-10T13:09:39;17.10;99.90
10386;DHT22;34307;51.332;12.334;2023-05-10T13:12:08;17.10;99.90
10386;DHT22;34307;51.332;12.334;2023-05-10T13:14:39;17.10;99.90
10386;DHT22;34307;51.332;12.334;2023-05-10T13:17:09;17.10;99.90
10386;DHT22;34307;51.332;12.334;2023-05-10T13:19:45;17.00;99.90
10386;DHT22;34307;51.332;12.334;2023-05-10T13:22:13;17.00;99.90
10386;DHT22;34307;51.332;12.334;2023-05-10T13:24:51;16.90;99.90
10386;DHT22;34307;51.332;12.334;2023-05-10T13:27:21;16.80;99.90
10386;DHT22;34307;51.332;12.334;2023-05-10T13:29:49;16.70;99.90
10386;DHT22;34307;51.332;12.334;2023-05-10T13:32:17;16.50;99.90
10386;DHT22;34307;51.332;12.334;2023-05-10T13:34:52;16.40;99.90
10386;DHT22;34307;51.332;12.334;2023-05-10T13:37:20;16.50;99.90
10386;DHT22;34307;51.332;12.334;2023-05-10T13:39:51;16.50;99.90
10386;DHT22;34307;51.332;12.334;2023-05-10T13:42:19;16.50;99.90
10386;DHT22;34307;51.332;12.334;2023-05-10T13:44:48;16.50;99.90
10386;DHT22;34307;51.332;12.334;2023-05-10T13:47:22;16.40;99.90
10386;DHT22;34307;51.332;12.334;2023-05-10T13:49:54;16.20;99.90
10386;DHT22;34307;51.332;12.334;2023-05-10T13:52:24;15.90;99.90
10386;DHT22;34307;51.332;12.334;2023-05-10T13:54:53;15.80;99.90
10386;DHT22;34307;51.332;12.334;2023-05-10T13:57:25;15.50;99.90
10386;DHT22;34307;51.332;12.334;2023-05-10T13:59:57;15.30;99.90
10386;DHT22;34307;51.332;12.334;2023-05-10T14:02:25;14.90;99.90
10386;DHT22;34307;51.332;12.334;2023-05-10T14:04:56;14.70;99.90
10386;DHT22;34307;51.332;12.334;2023-05-10T14:07:25;14.50;99.90
10386;DHT22;34307;51.332;12.334;2023-05-10T14:09:52;14.40;99.90
10386;DHT22;34307;51.332;12.334;2023-05-10T14:12:21;14.30;99.90
10386;DHT22;34307;51.332;12.334;2023-05-10T14:14:51;14.20;99.90
10386;DHT22;34307;51.332;12.334;2023-05-10T14:17:20;14.20;99.90
10386;DHT22;34307;51.332;12.334;2023-05-10T14:19:48;14.20;99.90
10386;DHT22;34307;51.332;12.334;2023-05-10T14:22:18;14.20;99.90
10386;DHT22;34307;51.332;12.334;2023-05-10T14:24:46;14.30;99.90
10386;DHT22;34307;51.332;12.334;2023-05-10T14:27:16;14.30;99.90
10386;DHT22;34307;51.332;12.334;2023-05-10T14:29:47;14.20;99.90
10386;DHT22;34307;51.332;12.334;2023-05-10T14:32:15;14.20;99.90
10386;DHT22;34307;51.332;12.334;2023-05-10T14:34:44;14.20;99.90
10386;DHT22;34307;51.332;12.334;2023-05-10T14:37:21;14.20;99.90
10386;DHT22;34307;51.332;12.334;2023-05-10T14:39:50;14.40;99.90
10386;DHT22;34307;51.332;12.334;2023-05-10T14:42:22;14.40;99.90
10386;DHT22;34307;51.332;12.334;2023-05-10T14:44:50;14.40;99.90
10386;DHT22;34307;51.332;12.334;2023-05-10T14:47:18;14.40;99.90
10386;DHT22;34307;51.332;12.334;2023-05-10T14:49:46;14.40;99.90
10386;DHT22;34307;51.332;12.334;2023-05-10T14:52:14;14.40;99.90
10386;DHT22;34307;51.332;12.334;2023-05-10T14:54:44;14.40;99.90
10386;DHT22;34307;51.332;12.334;2023-05-10T14:57:16;14.30;99.90
10386;DHT22;34307;51.332;12.334;2023-05-10T14:59:44;14.20;99.90
10386;DHT22;34307;51.332;12.334;2023-05-10T15:02:14;14.10;99.90
10386;DHT22;34307;51.332;12.334;2023-05-10T15:04:45;14.10;99.90
10386;DHT22;34307;51.332;12.334;2023-05-10T15:07:17;14.10;99.90
10386;DHT22;34307;51.332;12.334;2023-05-10T15:09:46;14.10;99.90
10386;DHT22;34307;51.332;12.334;2023-05-10T15:12:14;14.10;99.90
10386;DHT22;34307;51.332;12.334;2023-05-10T15:14:42;14.10;99.90
10386;DHT22;34307;51.332;12.334;2023-05-10T15:17:12;14.20;99.90
10386;DHT22;34307;51.332;12.334;2023-05-10T15:19:39;14.20;99.90
10386;DHT22;34307;51.332;12.334;2023-05-10T15:22:12;14.20;99.90
10386;DHT22;34307;51.332;12.334;2023-05-10T15:24:40;14.20;99.90
10386;DHT22;34307;51.332;12.334;2023-05-10T15:27:11;14.20;99.90
10386;DHT22;34307;51.332;12.334;2023-05-10T15:29:38;14.00;99.90
10386;DHT22;34307;51.332;12.334;2023-05-10T15:32:07;14.00;99.90
10386;DHT22;34307;51.332;12.334;2023-05-10T15:34:36;13.90;99.90
10386;DHT22;34307;51.332;12.334;2023-05-10T15:37:06;13.90;99.90
10386;DHT22;34307;51.332;12.334;2023-05-10T15:39:36;13.90;99.90